sensor_id;sensor_type;location;lat;lon;timestamp;pressure;altitude;pressure_sealevel;temperature;humidity
69689;BME280;56932;38.402;-96.176;2022-07-18T00:00:45;97309.65;;;26.99;24.34
69689;BME280;56932;38.402;-96.176;2022-07-18T00:03:11;97309.36;;;27.05;24.06
69689;BME280;56932;38.402;-96.176;2022-07-18T00:05:36;97306.12;;;26.95;24.21
69689;BME280;56932;38.402;-96.176;2022-07-18T00:08:02;97306.93;;;27.23;24.00
69689;BME280;56932;38.402;-96.176;2022-07-18T00:10:27;97301.70;;;27.22;24.10
69689;BME280;56932;38.402;-96.176;2022-07-18T00:12:53;97302.24;;;26.72;24.21
69689;BME280;56932;38.402;-96.176;2022-07-18T00:15:18;97299.68;;;26.83;24.18
69689;BME280;56932;38.402;-96.176;2022-07-18T00:17:43;97297.24;;;27.29;24.34
69689;BME280;56932;38.402;-96.176;2022-07-18T00:20:11;97298.17;;;27.20;24.18
69689;BME280;56932;38.402;-96.176;2022-07-18T00:22:34;97299.35;;;26.92;24.51
69689;BME280;56932;38.402;-96.176;2022-07-18T00:25:00;97302.24;;;26.94;24.53
69689;BME280;56932;38.402;-96.176;2022-07-18T00:27:25;97304.40;;;27.01;24.17
69689;BME280;56932;38.402;-96.176;2022-07-18T00:29:51;97304.16;;;26.66;24.60
69689;BME280;56932;38.402;-96.176;2022-07-18T00:32:16;97307.20;;;26.88;24.19
69689;BME280;56932;38.402;-96.176;2022-07-18T00:34:42;97307.82;;;26.60;24.32
69689;BME280;56932;38.402;-96.176;2022-07-18T00:37:07;97310.60;;;26.54;24.40
69689;BME280;56932;38.402;-96.176;2022-07-18T00:39:33;97313.82;;;26.86;24.19
69689;BME280;56932;38.402;-96.176;2022-07-18T00:41:58;97314.53;;;26.67;24.29
69689;BME280;56932;38.402;-96.176;2022-07-18T00:44:25;97315.51;;;26.72;24.27
69689;BME280;56932;38.402;-96.176;2022-07-18T00:46:50;97316.57;;;26.85;24.01
69689;BME280;56932;38.402;-96.176;2022-07-18T00:49:14;97314.95;;;26.80;24.26
69689;BME280;56932;38.402;-96.176;2022-07-18T00:51:40;97314.91;;;26.42;24.59
69689;BME280;56932;38.402;-96.176;2022-07-18T00:54:05;97312.22;;;26.89;24.56
69689;BME280;56932;38.402;-96.176;2022-07-18T00:56:31;97314.12;;;26.69;24.47
69689;BME280;56932;38.402;-96.176;2022-07-18T00:58:56;97317.35;;;26.38;24.46
69689;BME280;56932;38.402;-96.176;2022-07-18T01:01:21;97314.64;;;26.73;24.40
69689;BME280;56932;38.402;-96.176;2022-07-18T01:03:47;97317.84;;;26.56;24.39
69689;BME280;56932;38.402;-96.176;2022-07-18T01:06:12;97319.59;;;26.67;24.23
69689;BME280;56932;38.402;-96.176;2022-07-18T01:08:37;97320.09;;;26.79;23.89
69689;BME280;56932;38.402;-96.176;2022-07-18T01:11:03;97322.62;;;27.03;23.94
69689;BME280;56932;38.402;-96.176;2022-07-18T01:13:28;97326.27;;;26.90;24.00
69689;BME280;56932;38.402;-96.176;2022-07-18T01:15:54;97328.49;;;26.90;24.11
69689;BME280;56932;38.402;-96.176;2022-07-18T01:18:19;97336.19;;;26.94;24.15
69689;BME280;56932;38.402;-96.176;2022-07-18T01:20:45;97335.74;;;26.40;24.46
69689;BME280;56932;38.402;-96.176;2022-07-18T01:23:10;97334.89;;;26.73;23.96
69689;BME280;56932;38.402;-96.176;2022-07-18T01:25:36;97332.98;;;26.44;24.29
69689;BME280;56932;38.402;-96.176;2022-07-18T01:28:01;97334.46;;;26.40;24.02
69689;BME280;56932;38.402;-96.176;2022-07-18T01:30:27;97337.04;;;26.62;23.78
69689;BME280;56932;38.402;-96.176;2022-07-18T01:32:56;97333.78;;;27.00;23.79
69689;BME280;56932;38.402;-96.176;2022-07-18T01:35:17;97338.21;;;26.55;24.06
69689;BME280;56932;38.402;-96.176;2022-07-18T01:37:43;97338.16;;;26.68;23.90
69689;BME280;56932;38.402;-96.176;2022-07-18T01:40:10;97337.82;;;26.82;23.86
69689;BME280;56932;38.402;-96.176;2022-07-18T01:42:34;97340.91;;;26.50;24.17
69689;BME280;56932;38.402;-96.176;2022-07-18T01:44:59;97339.46;;;26.33;24.20
69689;BME280;56932;38.402;-96.176;2022-07-18T01:47:25;97340.40;;;26.72;23.84
69689;BME280;56932;38.402;-96.176;2022-07-18T01:49:50;97338.31;;;27.09;23.70
69689;BME280;56932;38.402;-96.176;2022-07-18T01:52:15;97344.08;;;26.89;23.81
69689;BME280;56932;38.402;-96.176;2022-07-18T01:54:41;97341.69;;;26.61;24.05
69689;BME280;56932;38.402;-96.176;2022-07-18T01:57:07;97341.37;;;26.64;24.08
69689;BME280;56932;38.402;-96.176;2022-07-18T01:59:32;97341.37;;;26.49;24.07
69689;BME280;56932;38.402;-96.176;2022-07-18T02:01:57;97346.42;;;26.57;23.84
69689;BME280;56932;38.402;-96.176;2022-07-18T02:04:23;97348.53;;;25.39;25.58
69689;BME280;56932;38.402;-96.176;2022-07-18T02:06:48;97348.54;;;24.55;26.33
69689;BME280;56932;38.402;-96.176;2022-07-18T02:09:13;97350.26;;;24.62;26.31
69689;BME280;56932;38.402;-96.176;2022-07-18T02:11:39;97349.66;;;23.11;27.56
69689;BME280;56932;38.402;-96.176;2022-07-18T02:14:05;97354.01;;;23.25;27.26
69689;BME280;56932;38.402;-96.176;2022-07-18T02:16:30;97351.83;;;23.13;27.42
69689;BME280;56932;38.402;-96.176;2022-07-18T02:18:56;97351.33;;;23.21;26.71
69689;BME280;56932;38.402;-96.176;2022-07-18T02:21:21;97352.49;;;23.12;26.95
69689;BME280;56932;38.402;-96.176;2022-07-18T02:23:46;97356.55;;;22.31;27.56
69689;BME280;56932;38.402;-96.176;2022-07-18T02:26:12;97360.31;;;22.36;27.91
69689;BME280;56932;38.402;-96.176;2022-07-18T02:28:37;97361.60;;;22.43;27.54
69689;BME280;56932;38.402;-96.176;2022-07-18T02:31:03;97364.55;;;22.10;27.36
69689;BME280;56932;38.402;-96.176;2022-07-18T02:33:28;97364.08;;;22.22;27.16
69689;BME280;56932;38.402;-96.176;2022-07-18T02:35:54;97368.34;;;22.33;26.87
69689;BME280;56932;38.402;-96.176;2022-07-18T02:38:19;97378.87;;;22.45;27.16
69689;BME280;56932;38.402;-96.176;2022-07-18T02:40:45;97383.40;;;22.20;27.24
69689;BME280;56932;38.402;-96.176;2022-07-18T02:43:10;97382.21;;;22.07;27.25
69689;BME280;56932;38.402;-96.176;2022-07-18T02:45:36;97382.94;;;21.38;27.93
69689;BME280;56932;38.402;-96.176;2022-07-18T02:48:01;97386.99;;;21.80;27.40
69689;BME280;56932;38.402;-96.176;2022-07-18T02:50:27;97388.28;;;21.64;27.44
69689;BME280;56932;38.402;-96.176;2022-07-18T02:52:52;97392.76;;;21.46;27.62
69689;BME280;56932;38.402;-96.176;2022-07-18T02:55:18;97400.62;;;21.81;27.10
69689;BME280;56932;38.402;-96.176;2022-07-18T02:57:43;97403.83;;;21.66;27.19
69689;BME280;56932;38.402;-96.176;2022-07-18T03:00:11;97409.49;;;21.20;27.64
69689;BME280;56932;38.402;-96.176;2022-07-18T03:02:34;97411.12;;;22.41;26.35
69689;BME280;56932;38.402;-96.176;2022-07-18T03:04:59;97411.38;;;20.97;27.93
69689;BME280;56932;38.402;-96.176;2022-07-18T03:07:25;97415.82;;;21.47;27.58
69689;BME280;56932;38.402;-96.176;2022-07-18T03:09:50;97416.22;;;21.09;27.70
69689;BME280;56932;38.402;-96.176;2022-07-18T03:12:16;97418.13;;;21.12;27.60
69689;BME280;56932;38.402;-96.176;2022-07-18T03:14:41;97419.39;;;21.86;26.63
69689;BME280;56932;38.402;-96.176;2022-07-18T03:17:07;97424.97;;;21.56;26.95
69689;BME280;56932;38.402;-96.176;2022-07-18T03:19:32;97427.74;;;21.20;27.59
69689;BME280;56932;38.402;-96.176;2022-07-18T03:21:58;97423.51;;;21.59;26.81
69689;BME280;56932;38.402;-96.176;2022-07-18T03:24:24;97422.24;;;21.49;27.34
69689;BME280;56932;38.402;-96.176;2022-07-18T03:26:49;97424.92;;;21.05;27.66
69689;BME280;56932;38.402;-96.176;2022-07-18T03:29:14;97426.13;;;20.55;28.16
69689;BME280;56932;38.402;-96.176;2022-07-18T03:31:41;97430.72;;;20.99;27.72
69689;BME280;56932;38.402;-96.176;2022-07-18T03:34:06;97433.31;;;20.94;27.43
69689;BME280;56932;38.402;-96.176;2022-07-18T03:36:31;97433.80;;;20.74;27.61
69689;BME280;56932;38.402;-96.176;2022-07-18T03:38:57;97434.66;;;21.46;27.08
69689;BME280;56932;38.402;-96.176;2022-07-18T03:41:22;97436.59;;;21.08;27.31
69689;BME280;56932;38.402;-96.176;2022-07-18T03:43:48;97438.73;;;20.55;27.30
69689;BME280;56932;38.402;-96.176;2022-07-18T03:46:13;97440.59;;;21.06;27.31
69689;BME280;56932;38.402;-96.176;2022-07-18T03:48:39;97442.63;;;20.92;27.40
69689;BME280;56932;38.402;-96.176;2022-07-18T03:51:04;97439.96;;;20.60;27.70
69689;BME280;56932;38.402;-96.176;2022-07-18T03:53:30;97441.89;;;20.50;27.49
69689;BME280;56932;38.402;-96.176;2022-07-18T03:55:55;97446.48;;;20.75;27.51
69689;BME280;56932;38.402;-96.176;2022-07-18T03:58:21;97451.96;;;20.71;27.53
69689;BME280;56932;38.402;-96.176;2022-07-18T04:00:46;97450.41;;;20.33;27.68
69689;BME280;56932;38.402;-96.176;2022-07-18T04:03:13;97445.63;;;20.33;27.94
69689;BME280;56932;38.402;-96.176;2022-07-18T04:05:37;97445.28;;;20.32;27.94
69689;BME280;56932;38.402;-96.176;2022-07-18T04:08:02;97445.50;;;20.48;28.04
69689;BME280;56932;38.402;-96.176;2022-07-18T04:10:28;97443.20;;;20.65;27.66
69689;BME280;56932;38.402;-96.176;2022-07-18T04:12:55;97442.82;;;20.46;27.79
69689;BME280;56932;38.402;-96.176;2022-07-18T04:15:20;97444.20;;;20.49;27.72
69689;BME280;56932;38.402;-96.176;2022-07-18T04:17:45;97444.15;;;20.13;27.98
69689;BME280;56932;38.402;-96.176;2022-07-18T04:20:11;97442.70;;;20.30;27.83
69689;BME280;56932;38.402;-96.176;2022-07-18T04:25:01;97444.25;;;20.69;27.55
69689;BME280;56932;38.402;-96.176;2022-07-18T04:27:27;97446.19;;;20.26;27.80
69689;BME280;56932;38.402;-96.176;2022-07-18T04:29:52;97445.47;;;20.32;27.98
69689;BME280;56932;38.402;-96.176;2022-07-18T04:32:18;97448.28;;;20.03;28.16
69689;BME280;56932;38.402;-96.176;2022-07-18T04:34:43;97449.74;;;20.40;27.84
69689;BME280;56932;38.402;-96.176;2022-07-18T04:37:08;97448.63;;;20.53;27.78
69689;BME280;56932;38.402;-96.176;2022-07-18T04:39:34;97454.24;;;20.29;28.15
69689;BME280;56932;38.402;-96.176;2022-07-18T04:41:59;97451.50;;;20.91;27.80
69689;BME280;56932;38.402;-96.176;2022-07-18T04:44:25;97450.82;;;21.02;27.60
69689;BME280;56932;38.402;-96.176;2022-07-18T04:46:50;97448.91;;;21.04;28.17
69689;BME280;56932;38.402;-96.176;2022-07-18T04:49:16;97448.38;;;21.49;27.97
69689;BME280;56932;38.402;-96.176;2022-07-18T04:51:42;97447.33;;;21.48;27.98
69689;BME280;56932;38.402;-96.176;2022-07-18T04:54:07;97447.91;;;21.23;28.75
69689;BME280;56932;38.402;-96.176;2022-07-18T04:56:33;97445.92;;;21.77;28.50
69689;BME280;56932;38.402;-96.176;2022-07-18T04:58:58;97444.64;;;21.83;28.21
69689;BME280;56932;38.402;-96.176;2022-07-18T05:01:23;97445.43;;;22.23;28.31
69689;BME280;56932;38.402;-96.176;2022-07-18T05:03:49;97448.85;;;21.65;29.12
69689;BME280;56932;38.402;-96.176;2022-07-18T05:06:14;97446.33;;;21.71;29.06
69689;BME280;56932;38.402;-96.176;2022-07-18T05:08:40;97444.43;;;21.95;29.00
69689;BME280;56932;38.402;-96.176;2022-07-18T05:11:06;97442.11;;;22.02;29.09
69689;BME280;56932;38.402;-96.176;2022-07-18T05:13:31;97445.98;;;22.30;28.93
69689;BME280;56932;38.402;-96.176;2022-07-18T05:15:56;97445.82;;;22.57;28.63
69689;BME280;56932;38.402;-96.176;2022-07-18T05:18:22;97444.37;;;22.40;29.20
69689;BME280;56932;38.402;-96.176;2022-07-18T05:20:47;97442.71;;;22.73;28.97
69689;BME280;56932;38.402;-96.176;2022-07-18T05:23:14;97445.21;;;22.38;29.50
69689;BME280;56932;38.402;-96.176;2022-07-18T05:25:38;97439.99;;;22.49;29.53
69689;BME280;56932;38.402;-96.176;2022-07-18T05:28:04;97439.01;;;22.85;29.30
69689;BME280;56932;38.402;-96.176;2022-07-18T05:30:29;97436.65;;;22.42;29.89
69689;BME280;56932;38.402;-96.176;2022-07-18T05:32:55;97433.68;;;22.54;29.90
69689;BME280;56932;38.402;-96.176;2022-07-18T05:35:20;97430.88;;;22.57;30.00
69689;BME280;56932;38.402;-96.176;2022-07-18T05:37:46;97427.73;;;22.59;30.14
69689;BME280;56932;38.402;-96.176;2022-07-18T05:40:13;97429.27;;;22.17;30.75
69689;BME280;56932;38.402;-96.176;2022-07-18T05:42:37;97429.71;;;22.28;30.76
69689;BME280;56932;38.402;-96.176;2022-07-18T05:45:03;97430.31;;;22.91;29.90
69689;BME280;56932;38.402;-96.176;2022-07-18T05:47:27;97430.05;;;22.94;29.93
69689;BME280;56932;38.402;-96.176;2022-07-18T05:49:53;97436.29;;;22.67;30.58
69689;BME280;56932;38.402;-96.176;2022-07-18T05:52:18;97434.23;;;23.11;30.24
69689;BME280;56932;38.402;-96.176;2022-07-18T05:54:44;97436.50;;;22.50;31.01
69689;BME280;56932;38.402;-96.176;2022-07-18T05:57:09;97436.16;;;22.70;30.85
69689;BME280;56932;38.402;-96.176;2022-07-18T05:59:35;97432.18;;;22.74;30.64
69689;BME280;56932;38.402;-96.176;2022-07-18T06:02:00;97428.96;;;22.82;30.62
69689;BME280;56932;38.402;-96.176;2022-07-18T06:04:26;97426.94;;;23.08;30.09
69689;BME280;56932;38.402;-96.176;2022-07-18T06:06:51;97430.18;;;22.95;30.29
69689;BME280;56932;38.402;-96.176;2022-07-18T06:09:17;97432.09;;;22.54;30.81
69689;BME280;56932;38.402;-96.176;2022-07-18T06:11:42;97430.25;;;23.27;30.00
69689;BME280;56932;38.402;-96.176;2022-07-18T06:14:08;97426.04;;;23.01;30.70
69689;BME280;56932;38.402;-96.176;2022-07-18T06:16:33;97421.33;;;22.69;30.85
69689;BME280;56932;38.402;-96.176;2022-07-18T06:18:59;97422.00;;;22.61;31.05
69689;BME280;56932;38.402;-96.176;2022-07-18T06:21:24;97421.67;;;23.02;30.64
69689;BME280;56932;38.402;-96.176;2022-07-18T06:23:50;97418.70;;;22.57;31.28
69689;BME280;56932;38.402;-96.176;2022-07-18T06:26:15;97417.76;;;22.59;31.37
69689;BME280;56932;38.402;-96.176;2022-07-18T06:28:41;97418.91;;;22.93;31.03
69689;BME280;56932;38.402;-96.176;2022-07-18T06:31:06;97418.60;;;22.92;31.71
69689;BME280;56932;38.402;-96.176;2022-07-18T06:33:31;97420.66;;;22.62;31.57
69689;BME280;56932;38.402;-96.176;2022-07-18T06:35:57;97423.35;;;22.76;31.80
69689;BME280;56932;38.402;-96.176;2022-07-18T06:38:22;97425.25;;;22.98;31.33
69689;BME280;56932;38.402;-96.176;2022-07-18T06:40:48;97422.58;;;23.05;31.66
69689;BME280;56932;38.402;-96.176;2022-07-18T06:43:13;97426.16;;;23.32;31.41
69689;BME280;56932;38.402;-96.176;2022-07-18T06:45:39;97430.88;;;22.86;31.78
69689;BME280;56932;38.402;-96.176;2022-07-18T06:48:05;97434.37;;;23.04;31.65
69689;BME280;56932;38.402;-96.176;2022-07-18T06:50:30;97436.69;;;23.07;31.99
69689;BME280;56932;38.402;-96.176;2022-07-18T06:52:55;97442.93;;;23.33;31.45
69689;BME280;56932;38.402;-96.176;2022-07-18T06:55:21;97444.96;;;23.37;31.46
69689;BME280;56932;38.402;-96.176;2022-07-18T06:57:47;97440.20;;;22.82;32.14
69689;BME280;56932;38.402;-96.176;2022-07-18T07:00:13;97442.01;;;22.82;32.22
69689;BME280;56932;38.402;-96.176;2022-07-18T07:02:41;97439.94;;;22.99;32.05
69689;BME280;56932;38.402;-96.176;2022-07-18T07:05:03;97437.95;;;23.31;32.33
69689;BME280;56932;38.402;-96.176;2022-07-18T07:07:28;97437.10;;;23.24;32.20
69689;BME280;56932;38.402;-96.176;2022-07-18T07:09:54;97434.19;;;22.92;32.37
69689;BME280;56932;38.402;-96.176;2022-07-18T07:12:19;97436.76;;;23.61;31.62
69689;BME280;56932;38.402;-96.176;2022-07-18T07:14:44;97439.14;;;23.21;32.18
69689;BME280;56932;38.402;-96.176;2022-07-18T07:17:10;97439.96;;;23.30;32.25
69689;BME280;56932;38.402;-96.176;2022-07-18T07:19:35;97444.30;;;23.26;33.03
69689;BME280;56932;38.402;-96.176;2022-07-18T07:22:01;97443.84;;;22.84;33.04
69689;BME280;56932;38.402;-96.176;2022-07-18T07:24:26;97441.07;;;23.01;32.82
69689;BME280;56932;38.402;-96.176;2022-07-18T07:26:52;97436.91;;;23.33;32.23
69689;BME280;56932;38.402;-96.176;2022-07-18T07:29:17;97437.88;;;23.49;32.04
69689;BME280;56932;38.402;-96.176;2022-07-18T07:31:43;97438.28;;;23.26;32.69
69689;BME280;56932;38.402;-96.176;2022-07-18T07:34:09;97440.59;;;23.14;32.89
69689;BME280;56932;38.402;-96.176;2022-07-18T07:36:34;97445.09;;;23.35;32.61
69689;BME280;56932;38.402;-96.176;2022-07-18T07:38:59;97441.21;;;22.91;33.22
69689;BME280;56932;38.402;-96.176;2022-07-18T07:41:25;97442.12;;;23.36;32.75
69689;BME280;56932;38.402;-96.176;2022-07-18T07:43:50;97444.64;;;23.64;32.81
69689;BME280;56932;38.402;-96.176;2022-07-18T07:46:15;97444.00;;;23.06;33.19
69689;BME280;56932;38.402;-96.176;2022-07-18T07:48:41;97443.28;;;22.95;33.37
69689;BME280;56932;38.402;-96.176;2022-07-18T07:51:06;97447.13;;;23.35;32.92
69689;BME280;56932;38.402;-96.176;2022-07-18T07:53:32;97447.79;;;23.48;32.80
69689;BME280;56932;38.402;-96.176;2022-07-18T07:55:57;97449.01;;;23.36;32.97
69689;BME280;56932;38.402;-96.176;2022-07-18T07:58:23;97448.29;;;23.20;33.22
69689;BME280;56932;38.402;-96.176;2022-07-18T08:00:48;97444.59;;;23.45;32.93
69689;BME280;56932;38.402;-96.176;2022-07-18T08:03:14;97441.48;;;23.22;33.60
69689;BME280;56932;38.402;-96.176;2022-07-18T08:05:48;97445.12;;;23.11;33.48
69689;BME280;56932;38.402;-96.176;2022-07-18T08:08:05;97446.82;;;23.05;33.59
69689;BME280;56932;38.402;-96.176;2022-07-18T08:10:31;97446.17;;;22.91;33.80
69689;BME280;56932;38.402;-96.176;2022-07-18T08:12:56;97447.59;;;23.06;33.63
69689;BME280;56932;38.402;-96.176;2022-07-18T08:15:21;97446.05;;;23.30;33.39
69689;BME280;56932;38.402;-96.176;2022-07-18T08:17:47;97447.79;;;23.31;33.39
69689;BME280;56932;38.402;-96.176;2022-07-18T08:20:12;97448.26;;;23.38;33.33
69689;BME280;56932;38.402;-96.176;2022-07-18T08:25:03;97447.86;;;23.57;33.16
69689;BME280;56932;38.402;-96.176;2022-07-18T08:27:28;97449.37;;;23.11;33.79
69689;BME280;56932;38.402;-96.176;2022-07-18T08:29:54;97446.82;;;23.74;33.02
69689;BME280;56932;38.402;-96.176;2022-07-18T08:32:19;97453.77;;;23.50;33.30
69689;BME280;56932;38.402;-96.176;2022-07-18T08:34:45;97456.53;;;23.13;33.77
69689;BME280;56932;38.402;-96.176;2022-07-18T08:37:10;97460.82;;;23.52;33.37
69689;BME280;56932;38.402;-96.176;2022-07-18T08:39:36;97462.83;;;23.14;33.23
69689;BME280;56932;38.402;-96.176;2022-07-18T08:42:01;97464.06;;;23.58;33.33
69689;BME280;56932;38.402;-96.176;2022-07-18T08:44:28;97465.77;;;23.79;33.07
69689;BME280;56932;38.402;-96.176;2022-07-18T08:46:52;97466.03;;;23.31;33.68
69689;BME280;56932;38.402;-96.176;2022-07-18T08:49:18;97469.20;;;23.69;33.29
69689;BME280;56932;38.402;-96.176;2022-07-18T08:51:43;97471.84;;;23.63;33.35
69689;BME280;56932;38.402;-96.176;2022-07-18T08:54:09;97468.00;;;23.67;33.35
69689;BME280;56932;38.402;-96.176;2022-07-18T08:56:34;97472.89;;;23.61;33.49
69689;BME280;56932;38.402;-96.176;2022-07-18T08:59:00;97472.57;;;23.86;32.87
69689;BME280;56932;38.402;-96.176;2022-07-18T09:01:25;97474.20;;;23.39;33.79
69689;BME280;56932;38.402;-96.176;2022-07-18T09:03:50;97478.35;;;23.48;33.72
69689;BME280;56932;38.402;-96.176;2022-07-18T09:06:16;97477.89;;;23.87;33.24
69689;BME280;56932;38.402;-96.176;2022-07-18T09:11:11;97481.87;;;23.48;33.76
69689;BME280;56932;38.402;-96.176;2022-07-18T09:13:38;97484.71;;;23.80;33.40
69689;BME280;56932;38.402;-96.176;2022-07-18T09:16:01;97485.21;;;23.44;33.87
69689;BME280;56932;38.402;-96.176;2022-07-18T09:18:27;97485.27;;;23.20;34.25
69689;BME280;56932;38.402;-96.176;2022-07-18T09:20:57;97486.58;;;23.42;33.99
69689;BME280;56932;38.402;-96.176;2022-07-18T09:23:14;97492.47;;;23.33;34.13
69689;BME280;56932;38.402;-96.176;2022-07-18T09:25:40;97497.51;;;23.59;33.82
69689;BME280;56932;38.402;-96.176;2022-07-18T09:28:09;97495.77;;;23.31;34.16
69689;BME280;56932;38.402;-96.176;2022-07-18T09:30:32;97495.05;;;23.18;34.39
69689;BME280;56932;38.402;-96.176;2022-07-18T09:33:05;97496.65;;;23.45;34.07
69689;BME280;56932;38.402;-96.176;2022-07-18T09:35:24;97497.42;;;23.91;33.51
69689;BME280;56932;38.402;-96.176;2022-07-18T09:37:52;97496.18;;;23.45;34.09
69689;BME280;56932;38.402;-96.176;2022-07-18T09:40:17;97501.58;;;23.32;33.96
69689;BME280;56932;38.402;-96.176;2022-07-18T09:42:38;97498.78;;;23.66;33.89
69689;BME280;56932;38.402;-96.176;2022-07-18T09:45:04;97499.25;;;23.23;34.44
69689;BME280;56932;38.402;-96.176;2022-07-18T09:47:29;97496.60;;;23.56;34.03
69689;BME280;56932;38.402;-96.176;2022-07-18T09:49:54;97497.79;;;23.42;34.28
69689;BME280;56932;38.402;-96.176;2022-07-18T09:52:20;97500.73;;;23.52;34.16
69689;BME280;56932;38.402;-96.176;2022-07-18T09:54:45;97505.57;;;23.40;34.33
69689;BME280;56932;38.402;-96.176;2022-07-18T09:59:37;97510.53;;;23.72;34.35
69689;BME280;56932;38.402;-96.176;2022-07-18T10:02:03;97516.92;;;23.36;34.45
69689;BME280;56932;38.402;-96.176;2022-07-18T10:04:27;97522.52;;;24.11;33.56
69689;BME280;56932;38.402;-96.176;2022-07-18T10:06:52;97521.73;;;23.57;34.24
69689;BME280;56932;38.402;-96.176;2022-07-18T10:09:18;97522.47;;;23.54;34.32
69689;BME280;56932;38.402;-96.176;2022-07-18T10:11:43;97519.73;;;23.76;34.07
69689;BME280;56932;38.402;-96.176;2022-07-18T10:14:09;97520.24;;;23.40;34.56
69689;BME280;56932;38.402;-96.176;2022-07-18T10:16:35;97521.37;;;24.42;33.30
69689;BME280;56932;38.402;-96.176;2022-07-18T10:18:59;97519.73;;;23.36;34.63
69689;BME280;56932;38.402;-96.176;2022-07-18T10:21:25;97516.99;;;23.25;34.80
69689;BME280;56932;38.402;-96.176;2022-07-18T10:23:51;97515.75;;;23.20;34.88
69689;BME280;56932;38.402;-96.176;2022-07-18T10:26:17;97514.87;;;23.64;34.07
69689;BME280;56932;38.402;-96.176;2022-07-18T10:31:14;97521.58;;;23.65;34.42
69689;BME280;56932;38.402;-96.176;2022-07-18T10:33:38;97521.21;;;23.37;34.82
69689;BME280;56932;38.402;-96.176;2022-07-18T10:36:01;97524.85;;;23.73;34.39
69689;BME280;56932;38.402;-96.176;2022-07-18T10:38:23;97527.22;;;23.98;34.06
69689;BME280;56932;38.402;-96.176;2022-07-18T10:45:44;97535.20;;;23.35;34.65
69689;BME280;56932;38.402;-96.176;2022-07-18T10:50:39;97542.02;;;23.73;34.19
69689;BME280;56932;38.402;-96.176;2022-07-18T10:52:57;97540.62;;;23.63;34.64
69689;BME280;56932;38.402;-96.176;2022-07-18T11:00:14;97560.86;;;23.55;34.81
69689;BME280;56932;38.402;-96.176;2022-07-18T11:02:39;97561.07;;;23.97;34.35
69689;BME280;56932;38.402;-96.176;2022-07-18T11:07:29;97573.35;;;23.63;34.87
69689;BME280;56932;38.402;-96.176;2022-07-18T11:09:54;97575.53;;;23.84;34.60
69689;BME280;56932;38.402;-96.176;2022-07-18T11:12:24;97575.26;;;23.71;34.81
69689;BME280;56932;38.402;-96.176;2022-07-18T11:17:11;97576.42;;;23.41;35.22
69689;BME280;56932;38.402;-96.176;2022-07-18T11:19:36;97579.72;;;23.75;34.81
69689;BME280;56932;38.402;-96.176;2022-07-18T11:22:02;97579.74;;;23.61;35.02
69689;BME280;56932;38.402;-96.176;2022-07-18T11:24:28;97572.15;;;23.78;34.49
69689;BME280;56932;38.402;-96.176;2022-07-18T11:26:53;97575.30;;;23.55;35.07
69689;BME280;56932;38.402;-96.176;2022-07-18T11:29:19;97575.35;;;23.30;35.46
69689;BME280;56932;38.402;-96.176;2022-07-18T11:31:45;97582.13;;;23.45;35.02
69689;BME280;56932;38.402;-96.176;2022-07-18T11:34:09;97581.51;;;23.96;34.33
69689;BME280;56932;38.402;-96.176;2022-07-18T11:36:34;97587.33;;;23.47;35.29
69689;BME280;56932;38.402;-96.176;2022-07-18T11:39:02;97591.44;;;24.24;34.33
69689;BME280;56932;38.402;-96.176;2022-07-18T11:41:26;97590.05;;;23.83;34.81
69689;BME280;56932;38.402;-96.176;2022-07-18T11:43:54;97585.42;;;23.57;35.26
69689;BME280;56932;38.402;-96.176;2022-07-18T11:46:18;97588.11;;;23.63;34.55
69689;BME280;56932;38.402;-96.176;2022-07-18T11:48:44;97589.40;;;23.78;34.70
69689;BME280;56932;38.402;-96.176;2022-07-18T11:51:10;97586.74;;;23.59;35.29
69689;BME280;56932;38.402;-96.176;2022-07-18T11:53:33;97590.64;;;23.77;35.03
69689;BME280;56932;38.402;-96.176;2022-07-18T11:56:03;97595.64;;;23.51;35.41
69689;BME280;56932;38.402;-96.176;2022-07-18T11:58:24;97598.53;;;23.49;35.20
69689;BME280;56932;38.402;-96.176;2022-07-18T12:00:49;97597.07;;;23.81;35.03
69689;BME280;56932;38.402;-96.176;2022-07-18T12:03:17;97594.45;;;24.17;34.30
69689;BME280;56932;38.402;-96.176;2022-07-18T12:05:42;97595.12;;;23.70;35.21
69689;BME280;56932;38.402;-96.176;2022-07-18T12:10:31;97596.50;;;23.74;34.88
69689;BME280;56932;38.402;-96.176;2022-07-18T12:12:56;97593.45;;;23.86;34.77
69689;BME280;56932;38.402;-96.176;2022-07-18T12:15:22;97593.92;;;24.08;34.77
69689;BME280;56932;38.402;-96.176;2022-07-18T12:17:48;97596.19;;;24.15;34.39
69689;BME280;56932;38.402;-96.176;2022-07-18T12:20:14;97594.47;;;24.44;33.97
69689;BME280;56932;38.402;-96.176;2022-07-18T12:25:04;97595.95;;;23.98;34.24
69689;BME280;56932;38.402;-96.176;2022-07-18T12:27:34;97599.10;;;24.41;33.78
69689;BME280;56932;38.402;-96.176;2022-07-18T12:29:57;97597.23;;;24.48;33.73
69689;BME280;56932;38.402;-96.176;2022-07-18T12:32:23;97600.64;;;24.02;34.37
69689;BME280;56932;38.402;-96.176;2022-07-18T12:34:54;97604.05;;;23.91;34.61
69689;BME280;56932;38.402;-96.176;2022-07-18T12:37:11;97610.81;;;23.95;34.57
69689;BME280;56932;38.402;-96.176;2022-07-18T12:39:36;97612.38;;;24.46;34.00
69689;BME280;56932;38.402;-96.176;2022-07-18T12:42:02;97612.27;;;24.58;33.91
69689;BME280;56932;38.402;-96.176;2022-07-18T12:44:28;97614.29;;;24.23;34.35
69689;BME280;56932;38.402;-96.176;2022-07-18T12:46:54;97616.41;;;23.27;34.57
69689;BME280;56932;38.402;-96.176;2022-07-18T12:49:19;97612.08;;;23.56;32.79
69689;BME280;56932;38.402;-96.176;2022-07-18T12:51:44;97611.13;;;22.98;32.71
69689;BME280;56932;38.402;-96.176;2022-07-18T12:54:09;97610.07;;;22.95;32.04
69689;BME280;56932;38.402;-96.176;2022-07-18T12:56:35;97610.15;;;23.49;30.78
69689;BME280;56932;38.402;-96.176;2022-07-18T12:59:04;97608.65;;;23.00;30.73
69689;BME280;56932;38.402;-96.176;2022-07-18T13:01:25;97611.49;;;22.87;30.37
69689;BME280;56932;38.402;-96.176;2022-07-18T13:03:51;97616.23;;;22.80;30.00